Portada
METAR-TAF:

METAR-TAF

Aeropuertos :

Aeropuerto de Murcia-San Javier

Murcia, España

latitud: 37-47N, longitud: 000-48W, altitud: 5 m

Observación

El informe se hizo hace 25 minutos, a las 16:30 UTC
Viento 6 kt del sureste, variando entre este y sur-sureste
Temperatura 22°C
Humedad 65%
Presión 1012 hPa
Visibilidad 10 km o más
Escasas nubes a una altura de 5400 ft

METAR: LELC 171630Z 13006KT 090V160 9999 FEW054 22/15 Q1012 NOSIG

Hora: 18:55 (16:55 UTC)

Pronóstico

El informe se hizo hace 5 horas y 55 minutos, a las 11:00 UTC
Pronóstico válido del 17 a las 12 UTC al 18 a las 12 UTC
Viento 10 kt del este
Visibilidad 10 km o más
Escasas nubes a una altura de 2500 ft
Evolucionando progresivamente
del 17 a las 16 UTC al 17 a las 19 UTC
Viento 4 kt del suroeste

TAF: LELC 171100Z 1712/1812 10010KT 9999 FEW025 TX24/1714Z TN16/1806Z BECMG 1716/1719 22004KT

Observaciones y pronósticos meteorológicos de más de 4000 aeropuertos (mensajes METAR y TAF).

Los puntos amarillos y rojos representan las estaciones disponibles.

Ponga el ratón en el punto deseado para ver el nombre de la estación.

Haga clic para ver las observaciones y los pronósticos meteorológicos.

Para cambiar el mapa : haga clic en los botones verdes con una cruz de color negro para hacer un zoom, en el botón verde con un guión para alejar o en las flechas verdes para mapas adyacentes.


METAR-TAF: